createdAt,value
2022-10-23T00:00:29.108Z,11.02
2022-10-23T00:01:29.084Z,11.01
2022-10-23T00:02:29.097Z,10.97
2022-10-23T00:03:29.082Z,10.98
2022-10-23T00:04:29.093Z,10.97
2022-10-23T00:05:29.095Z,10.98
2022-10-23T00:06:29.108Z,10.96
2022-10-23T00:08:29.134Z,10.93
2022-10-23T00:09:29.153Z,10.94
2022-10-23T00:10:29.158Z,10.94
2022-10-23T00:11:29.178Z,10.96
2022-10-23T00:12:29.183Z,10.96
2022-10-23T00:13:29.197Z,10.92
2022-10-23T00:14:29.221Z,10.90
2022-10-23T00:15:29.235Z,10.85
2022-10-23T00:16:29.239Z,10.84
2022-10-23T00:17:29.258Z,10.81
2022-10-23T00:18:29.277Z,10.83
2022-10-23T00:19:29.299Z,10.84
2022-10-23T00:20:29.316Z,10.84
2022-10-23T00:21:29.322Z,10.84
2022-10-23T00:22:29.344Z,10.84
2022-10-23T00:23:29.350Z,10.85
2022-10-23T00:24:29.370Z,10.84
2022-10-23T00:25:29.376Z,10.81
2022-10-23T00:26:29.399Z,10.78
2022-10-23T00:27:29.408Z,10.76
2022-10-23T00:28:29.413Z,10.77
2022-10-23T00:29:29.429Z,10.77
2022-10-23T00:30:29.435Z,10.76
2022-10-23T00:31:29.449Z,10.76
2022-10-23T00:32:29.497Z,10.75
2022-10-23T00:33:29.462Z,10.74
2022-10-23T00:34:29.476Z,10.71
2022-10-23T00:35:29.482Z,10.69
2022-10-23T00:36:29.501Z,10.69
2022-10-23T00:37:29.523Z,10.65
2022-10-23T00:38:29.539Z,10.62
2022-10-23T00:39:29.559Z,10.59
2022-10-23T00:40:29.566Z,10.60
2022-10-23T00:41:29.581Z,10.60
2022-10-23T00:42:29.604Z,10.62
2022-10-23T00:43:29.609Z,10.62
2022-10-23T00:44:29.614Z,10.59
2022-10-23T00:45:29.632Z,10.60
2022-10-23T01:03:30.157Z,10.70
2022-10-23T01:04:29.808Z,10.67
2022-10-23T01:05:29.813Z,10.70
2022-10-23T01:06:29.830Z,10.70
2022-10-23T01:07:29.827Z,10.69
2022-10-23T01:08:29.833Z,10.67
2022-10-23T01:09:29.840Z,10.65
2022-10-23T01:10:29.843Z,10.65
2022-10-23T01:11:29.855Z,10.63
2022-10-23T01:12:29.857Z,10.59
2022-10-23T01:13:29.869Z,10.58
2022-10-23T01:14:29.874Z,10.56
2022-10-23T01:15:29.881Z,10.57
2022-10-23T01:16:29.889Z,10.55
2022-10-23T01:17:29.902Z,10.54
2022-10-23T01:18:29.907Z,10.53
2022-10-23T01:19:29.913Z,10.53
2022-10-23T01:20:29.919Z,10.51
2022-10-23T01:21:29.926Z,10.51
2022-10-23T01:22:29.933Z,10.52
2022-10-23T01:23:29.943Z,10.53
2022-10-23T01:24:29.961Z,10.55
2022-10-23T01:25:29.954Z,10.58
2022-10-23T01:26:29.959Z,10.59
2022-10-23T01:27:29.966Z,10.60
2022-10-23T01:28:29.974Z,10.63
2022-10-23T01:29:29.990Z,10.64
2022-10-23T01:30:30.020Z,10.64
2022-10-23T01:31:29.995Z,10.68
2022-10-23T01:32:30.000Z,10.72
2022-10-23T01:33:30.001Z,10.73
2022-10-23T01:34:30.008Z,10.72
2022-10-23T01:35:30.017Z,10.74
2022-10-23T01:36:30.026Z,10.74
2022-10-23T01:37:30.035Z,10.73
2022-10-23T01:38:30.043Z,10.72
2022-10-23T01:39:30.051Z,10.70
2022-10-23T01:40:30.059Z,10.67
2022-10-23T01:41:30.063Z,10.66
2022-10-23T01:42:30.068Z,10.64
2022-10-23T01:43:30.075Z,10.65
2022-10-23T01:44:30.082Z,10.64
2022-10-23T01:45:30.087Z,10.66
2022-10-23T01:46:30.094Z,10.66
2022-10-23T01:47:30.100Z,10.68
2022-10-23T01:48:30.107Z,10.70
2022-10-23T01:49:30.110Z,10.70
2022-10-23T01:50:30.118Z,10.74
2022-10-23T01:51:30.125Z,10.73
2022-10-23T01:52:30.130Z,10.72
2022-10-23T01:53:30.136Z,10.72
2022-10-23T01:54:30.141Z,10.71
2022-10-23T01:55:30.226Z,10.71
2022-10-23T01:56:30.153Z,10.70
2022-10-23T01:57:30.160Z,10.71
2022-10-23T01:58:30.167Z,10.72
2022-10-23T01:59:30.172Z,10.74
2022-10-23T02:00:30.178Z,10.72
2022-10-23T02:01:30.280Z,10.72
2022-10-23T02:02:30.208Z,10.72
2022-10-23T02:03:30.194Z,10.71
2022-10-23T02:04:30.200Z,10.70
2022-10-23T02:05:30.205Z,10.71
2022-10-23T02:06:30.214Z,10.70
2022-10-23T02:07:30.219Z,10.70
2022-10-23T02:08:30.225Z,10.72
2022-10-23T02:09:30.230Z,10.76
2022-10-23T02:10:30.238Z,10.79
2022-10-23T02:11:30.244Z,10.81
2022-10-23T02:12:30.252Z,10.81
2022-10-23T02:13:30.258Z,10.83
2022-10-23T02:14:30.266Z,10.84
2022-10-23T02:15:30.270Z,10.83
2022-10-23T02:16:30.275Z,10.84
2022-10-23T02:17:30.282Z,10.84
2022-10-23T02:18:30.288Z,10.85
2022-10-23T02:19:30.294Z,10.85
2022-10-23T02:20:30.327Z,10.85
2022-10-23T02:21:30.305Z,10.87
2022-10-23T02:22:30.311Z,10.84
2022-10-23T02:23:30.317Z,10.83
2022-10-23T02:24:30.323Z,10.82
2022-10-23T02:25:30.329Z,10.83
2022-10-23T02:26:30.335Z,10.83
2022-10-23T02:27:30.345Z,10.83
2022-10-23T02:28:30.347Z,10.83
2022-10-23T02:29:30.353Z,10.84
2022-10-23T02:30:30.361Z,10.84
2022-10-23T02:31:30.366Z,10.84
2022-10-23T02:32:30.372Z,10.83
2022-10-23T02:33:30.378Z,10.84
2022-10-23T02:34:30.384Z,10.87
2022-10-23T02:35:30.388Z,10.86
2022-10-23T02:36:30.397Z,10.89
2022-10-23T02:37:30.403Z,10.89
2022-10-23T02:38:30.406Z,10.91
2022-10-23T02:39:30.411Z,10.93
2022-10-23T02:40:30.417Z,10.94
2022-10-23T02:41:30.426Z,10.96
2022-10-23T02:42:30.430Z,11.01
2022-10-23T02:43:30.442Z,11.05
2022-10-23T02:44:30.447Z,11.05
2022-10-23T02:45:30.525Z,11.07
2022-10-23T02:46:30.460Z,11.09
2022-10-23T02:47:30.473Z,11.10
2022-10-23T02:48:30.474Z,11.10
2022-10-23T02:49:30.595Z,11.10
2022-10-23T02:50:30.492Z,11.13
2022-10-23T02:51:30.504Z,11.11
2022-10-23T02:52:30.509Z,11.11
2022-10-23T02:53:30.522Z,11.11
2022-10-23T02:54:30.529Z,11.13
2022-10-23T02:55:30.537Z,11.10
2022-10-23T02:56:31.252Z,11.10
2022-10-23T02:57:30.557Z,11.11
2022-10-23T02:58:30.559Z,11.12
2022-10-23T02:59:30.569Z,11.11
2022-10-23T03:00:30.574Z,11.10
2022-10-23T03:01:30.715Z,11.10
2022-10-23T03:03:30.596Z,11.10
2022-10-23T03:04:30.602Z,11.09
2022-10-23T03:05:30.614Z,11.09
2022-10-23T03:06:30.619Z,11.08
2022-10-23T03:07:30.637Z,11.08
2022-10-23T03:08:30.641Z,11.07
2022-10-23T03:09:30.650Z,11.05
2022-10-23T03:10:30.653Z,11.05
2022-10-23T03:11:30.664Z,11.03
2022-10-23T03:12:30.670Z,11.02
2022-10-23T03:13:30.678Z,11.02
2022-10-23T03:14:30.685Z,11.02
2022-10-23T03:15:30.704Z,11.02
2022-10-23T03:16:30.705Z,11.04
2022-10-23T03:17:30.707Z,11.03
2022-10-23T03:18:30.712Z,11.03
2022-10-23T03:19:30.721Z,11.02
2022-10-23T03:20:30.725Z,11.01
2022-10-23T03:21:30.731Z,11.00
2022-10-23T03:22:30.738Z,11.01
2022-10-23T03:23:30.743Z,11.00
2022-10-23T03:24:30.750Z,11.00
2022-10-23T03:25:30.755Z,10.98
2022-10-23T03:26:30.763Z,10.98
2022-10-23T03:27:30.769Z,10.97
2022-10-23T03:28:30.774Z,10.94
2022-10-23T03:29:30.781Z,10.93
2022-10-23T03:30:30.785Z,10.91
2022-10-23T03:31:30.790Z,10.89
2022-10-23T03:32:30.796Z,10.87
2022-10-23T03:33:30.802Z,10.84
2022-10-23T03:34:30.810Z,10.82
2022-10-23T03:35:30.817Z,10.83
2022-10-23T03:36:30.821Z,10.82
2022-10-23T03:37:30.830Z,10.81
2022-10-23T03:38:30.838Z,10.81
2022-10-23T03:39:30.844Z,10.78
2022-10-23T03:40:30.849Z,10.78
2022-10-23T03:41:30.854Z,10.77
2022-10-23T03:42:30.862Z,10.77
2022-10-23T03:43:30.867Z,10.78
2022-10-23T03:44:30.874Z,10.75
2022-10-23T03:45:30.880Z,10.75
2022-10-23T03:46:30.887Z,10.74
2022-10-23T03:47:30.892Z,10.74
2022-10-23T03:48:30.899Z,10.72
2022-10-23T03:49:30.906Z,10.71
2022-10-23T03:50:30.912Z,10.69
2022-10-23T03:51:30.922Z,10.67
2022-10-23T03:52:30.928Z,10.66
2022-10-23T03:53:30.936Z,10.61
2022-10-23T03:54:30.941Z,10.60
2022-10-23T03:55:30.961Z,10.55
2022-10-23T03:56:30.956Z,10.51
2022-10-23T03:57:30.965Z,10.47
2022-10-23T03:58:30.971Z,10.43
2022-10-23T03:59:30.975Z,10.40
2022-10-23T04:00:31.054Z,10.36
2022-10-23T04:01:31.041Z,10.33
2022-10-23T04:02:31.029Z,10.29
2022-10-23T04:03:30.999Z,10.27
2022-10-23T04:04:31.007Z,10.23
2022-10-23T04:05:31.012Z,10.18
2022-10-23T04:06:31.018Z,10.16
2022-10-23T04:07:31.028Z,10.14
2022-10-23T04:08:31.033Z,10.09
2022-10-23T04:09:31.038Z,10.10
2022-10-23T04:10:31.046Z,10.09
2022-10-23T04:11:31.051Z,10.08
2022-10-23T04:12:31.057Z,10.11
2022-10-23T04:13:31.066Z,10.09
2022-10-23T04:14:31.070Z,10.08
2022-10-23T04:15:31.078Z,10.08
2022-10-23T04:16:31.083Z,10.08
2022-10-23T04:17:31.090Z,10.06
2022-10-23T04:18:31.095Z,10.07
2022-10-23T04:19:31.101Z,10.06
2022-10-23T04:20:31.112Z,10.05
2022-10-23T04:21:31.116Z,10.02
2022-10-23T04:22:31.121Z,9.98
2022-10-23T04:23:31.128Z,9.98
2022-10-23T04:24:31.142Z,9.94
2022-10-23T04:25:31.144Z,9.97
2022-10-23T04:26:31.151Z,9.94
2022-10-23T04:27:31.157Z,9.90
2022-10-23T04:28:31.167Z,9.89
2022-10-23T04:29:31.171Z,9.89
2022-10-23T04:30:31.175Z,9.87
2022-10-23T04:31:31.181Z,9.87
2022-10-23T04:32:31.188Z,9.87
2022-10-23T04:33:31.196Z,9.85
2022-10-23T04:34:31.203Z,9.82
2022-10-23T04:35:31.208Z,9.78
2022-10-23T04:36:31.216Z,9.74
2022-10-23T04:37:31.220Z,9.72
2022-10-23T04:38:31.226Z,9.72
2022-10-23T04:39:31.233Z,9.72
2022-10-23T04:40:31.239Z,9.73
2022-10-23T04:41:31.245Z,9.71
2022-10-23T04:42:31.257Z,9.71
2022-10-23T04:43:31.258Z,9.68
2022-10-23T04:44:31.263Z,9.67
2022-10-23T04:45:31.271Z,9.66
2022-10-23T04:46:31.278Z,9.64
2022-10-23T04:47:31.282Z,9.62
2022-10-23T04:48:31.288Z,9.60
2022-10-23T04:49:31.294Z,9.62
2022-10-23T04:50:31.299Z,9.58
2022-10-23T04:51:31.306Z,9.58
2022-10-23T04:52:31.313Z,9.56
2022-10-23T04:53:31.324Z,9.56
2022-10-23T04:54:31.326Z,9.54
2022-10-23T04:55:31.334Z,9.56
2022-10-23T04:56:31.338Z,9.55
2022-10-23T04:57:31.344Z,9.55
2022-10-23T04:58:31.351Z,9.54
2022-10-23T04:59:31.357Z,9.56
2022-10-23T05:00:31.397Z,9.54
2022-10-23T05:01:31.428Z,9.53
2022-10-23T05:02:31.381Z,9.50
2022-10-23T05:03:31.386Z,9.50
2022-10-23T05:04:31.396Z,9.53
2022-10-23T05:05:31.403Z,9.53
2022-10-23T05:06:31.409Z,9.51
2022-10-23T05:07:31.417Z,9.51
2022-10-23T05:08:31.426Z,9.49
2022-10-23T05:09:31.432Z,9.48
2022-10-23T05:10:31.437Z,9.47
2022-10-23T05:11:31.442Z,9.46
2022-10-23T05:12:31.453Z,9.45
2022-10-23T05:13:31.459Z,9.45
2022-10-23T05:14:31.462Z,9.46
2022-10-23T05:15:31.611Z,9.44
2022-10-23T05:16:31.475Z,9.44
2022-10-23T05:17:31.484Z,9.44
2022-10-23T05:18:31.488Z,9.42
2022-10-23T05:19:31.495Z,9.41
2022-10-23T05:20:31.500Z,9.41
2022-10-23T05:21:31.506Z,9.41
2022-10-23T05:22:31.512Z,9.39
2022-10-23T05:23:31.518Z,9.40
2022-10-23T05:24:31.527Z,9.39
2022-10-23T05:25:31.534Z,9.40
2022-10-23T05:26:31.538Z,9.40
2022-10-23T05:27:31.545Z,9.41
2022-10-23T05:28:31.551Z,9.41
2022-10-23T05:29:31.555Z,9.41
2022-10-23T05:30:31.564Z,9.41
2022-10-23T05:31:31.566Z,9.41
2022-10-23T05:32:31.572Z,9.42
2022-10-23T05:33:31.576Z,9.41
2022-10-23T05:34:31.586Z,9.43
2022-10-23T05:35:31.589Z,9.41
2022-10-23T05:36:31.596Z,9.42
2022-10-23T05:37:31.601Z,9.43
2022-10-23T05:38:31.608Z,9.44
2022-10-23T05:39:31.615Z,9.43
2022-10-23T05:40:31.675Z,9.43
2022-10-23T05:41:31.626Z,9.42
2022-10-23T05:42:31.631Z,9.42
2022-10-23T05:43:31.639Z,9.44
2022-10-23T05:44:31.644Z,9.42
2022-10-23T05:45:31.651Z,9.41
2022-10-23T05:46:31.656Z,9.43
2022-10-23T05:47:31.664Z,9.42
2022-10-23T05:48:34.521Z,9.41
2022-10-23T05:49:31.683Z,9.39
2022-10-23T05:50:31.694Z,9.41
2022-10-23T05:51:31.699Z,9.40
2022-10-23T05:52:31.707Z,9.41
2022-10-23T05:53:31.717Z,9.42
2022-10-23T05:54:31.722Z,9.42
2022-10-23T05:55:31.734Z,9.42
2022-10-23T05:56:31.741Z,9.42
2022-10-23T05:57:31.747Z,9.42
2022-10-23T05:58:31.757Z,9.42
2022-10-23T05:59:31.764Z,9.42
2022-10-23T06:00:31.772Z,9.42
2022-10-23T06:01:31.880Z,9.41
2022-10-23T06:02:31.834Z,9.43
2022-10-23T06:03:31.790Z,9.42
2022-10-23T06:04:31.800Z,9.42
2022-10-23T06:05:31.839Z,9.44
2022-10-23T06:06:31.811Z,9.44
2022-10-23T06:07:32.475Z,9.46
2022-10-23T06:08:31.822Z,9.46
2022-10-23T06:09:31.830Z,9.47
2022-10-23T06:10:31.837Z,9.45
2022-10-23T06:11:31.843Z,9.44
2022-10-23T06:12:31.852Z,9.45
2022-10-23T06:13:31.857Z,9.47
2022-10-23T06:14:31.864Z,9.43
2022-10-23T06:15:31.870Z,9.43
2022-10-23T06:16:31.879Z,9.43
2022-10-23T06:17:31.884Z,9.44
2022-10-23T06:18:31.893Z,9.44
2022-10-23T06:19:31.899Z,9.46
2022-10-23T06:20:31.904Z,9.47
2022-10-23T06:21:31.910Z,9.46
2022-10-23T06:22:31.918Z,9.46
2022-10-23T06:23:31.926Z,9.47
2022-10-23T06:24:31.936Z,9.47
2022-10-23T06:25:31.942Z,9.47
2022-10-23T06:26:31.948Z,9.51
2022-10-23T06:27:31.959Z,9.50
2022-10-23T06:28:31.967Z,9.50
2022-10-23T06:29:31.975Z,9.52
2022-10-23T06:30:32.025Z,9.52
2022-10-23T06:31:31.991Z,9.52
2022-10-23T06:32:31.998Z,9.52
2022-10-23T06:33:32.009Z,9.54
2022-10-23T06:34:32.013Z,9.54
2022-10-23T06:35:32.018Z,9.55
2022-10-23T06:36:32.029Z,9.55
2022-10-23T06:37:32.031Z,9.57
2022-10-23T06:38:32.038Z,9.58
2022-10-23T06:39:32.299Z,9.59
2022-10-23T06:40:32.056Z,9.59
2022-10-23T06:41:32.063Z,9.59
2022-10-23T06:42:32.071Z,9.61
2022-10-23T06:43:32.080Z,9.59
2022-10-23T06:44:32.086Z,9.61
2022-10-23T06:45:32.096Z,9.62
2022-10-23T06:46:32.103Z,9.64
2022-10-23T06:47:32.117Z,9.63
2022-10-23T06:48:32.118Z,9.66
2022-10-23T06:49:32.141Z,9.67
2022-10-23T06:50:32.141Z,9.67
2022-10-23T06:51:32.149Z,9.67
2022-10-23T06:52:46.332Z,9.67
2022-10-23T06:53:32.162Z,9.67
2022-10-23T06:54:32.169Z,9.71
2022-10-23T06:55:32.253Z,9.68
2022-10-23T06:56:32.188Z,9.72
2022-10-23T06:57:32.198Z,9.70
2022-10-23T06:58:32.205Z,9.75
2022-10-23T06:59:32.219Z,9.76
2022-10-23T07:00:32.380Z,9.79
2022-10-23T07:01:32.402Z,9.78
2022-10-23T07:02:32.241Z,9.80
2022-10-23T07:03:32.251Z,9.83
2022-10-23T07:04:32.258Z,9.84
2022-10-23T07:05:32.265Z,9.85
2022-10-23T07:06:32.274Z,9.88
2022-10-23T07:07:32.285Z,9.92
2022-10-23T07:08:32.288Z,9.93
2022-10-23T07:09:32.294Z,9.94
2022-10-23T07:10:32.303Z,9.97
2022-10-23T07:11:32.313Z,10.02
2022-10-23T07:12:32.315Z,10.01
2022-10-23T07:13:32.323Z,10.03
2022-10-23T07:14:32.326Z,10.05
2022-10-23T07:15:32.337Z,10.07
2022-10-23T07:16:32.343Z,10.11
2022-10-23T07:17:32.353Z,10.15
2022-10-23T07:18:32.408Z,10.14
2022-10-23T07:19:32.365Z,10.14
2022-10-23T07:20:32.367Z,10.15
2022-10-23T07:21:32.377Z,10.16
2022-10-23T07:22:32.382Z,10.16
2022-10-23T07:23:32.391Z,10.17
2022-10-23T07:24:32.399Z,10.18
2022-10-23T07:25:32.411Z,10.19
2022-10-23T07:26:32.413Z,10.20
2022-10-23T07:27:32.421Z,10.20
2022-10-23T07:28:32.428Z,10.20
2022-10-23T07:29:32.433Z,10.23
2022-10-23T07:30:32.443Z,10.23
2022-10-23T07:31:32.448Z,10.28
2022-10-23T07:32:32.454Z,10.30
2022-10-23T07:33:32.462Z,10.31
2022-10-23T07:34:32.466Z,10.37
2022-10-23T07:35:34.237Z,10.39
2022-10-23T07:36:32.481Z,10.42
2022-10-23T07:37:32.482Z,10.42
2022-10-23T07:38:32.490Z,10.45
2022-10-23T07:39:32.497Z,10.49
2022-10-23T07:40:32.512Z,10.53
2022-10-23T07:41:32.513Z,10.58
2022-10-23T07:42:32.525Z,10.62
2022-10-23T07:44:32.538Z,10.68
2022-10-23T07:45:32.545Z,10.73
2022-10-23T07:46:32.552Z,10.74
2022-10-23T07:47:32.558Z,10.79
2022-10-23T07:48:32.566Z,10.83
2022-10-23T07:49:32.576Z,10.85
2022-10-23T07:50:32.599Z,10.90
2022-10-23T07:51:32.590Z,10.93
2022-10-23T07:52:34.989Z,10.93
2022-10-23T07:53:32.612Z,10.93
2022-10-23T07:54:32.609Z,10.93
2022-10-23T07:55:32.618Z,10.91
2022-10-23T07:56:32.625Z,10.92
2022-10-23T07:57:32.632Z,10.92
2022-10-23T07:58:32.639Z,10.93
2022-10-23T07:59:35.788Z,10.91
2022-10-23T08:00:32.651Z,10.91
2022-10-23T08:01:32.764Z,10.89
2022-10-23T08:02:32.682Z,10.92
2022-10-23T08:03:32.673Z,10.94
2022-10-23T08:04:32.680Z,10.95
2022-10-23T08:05:32.689Z,10.99
2022-10-23T08:06:32.693Z,11.03
2022-10-23T08:07:32.702Z,11.09
2022-10-23T08:08:32.776Z,11.12
2022-10-23T08:09:32.720Z,11.15
2022-10-23T08:10:32.723Z,11.18
2022-10-23T08:11:32.733Z,11.21
2022-10-23T08:12:32.738Z,11.22
2022-10-23T08:13:32.748Z,11.22
2022-10-23T08:14:32.753Z,11.24
2022-10-23T08:15:32.757Z,11.29
2022-10-23T08:16:32.767Z,11.31
2022-10-23T08:17:32.775Z,11.33
2022-10-23T08:18:32.782Z,11.37
2022-10-23T08:19:32.790Z,11.38
2022-10-23T08:20:32.797Z,11.41
2022-10-23T08:21:32.804Z,11.45
2022-10-23T08:22:32.812Z,11.51
2022-10-23T08:23:32.818Z,11.55
2022-10-23T08:24:32.829Z,11.59
2022-10-23T08:26:32.842Z,11.72
2022-10-23T08:27:32.847Z,11.76
2022-10-23T08:28:32.855Z,11.80
2022-10-23T08:29:32.863Z,11.84
2022-10-23T08:30:32.878Z,11.88
2022-10-23T08:31:32.878Z,11.90
2022-10-23T08:32:32.886Z,11.96
2022-10-23T08:33:32.899Z,12.01
2022-10-23T08:34:32.906Z,12.06
2022-10-23T08:35:32.916Z,12.11
2022-10-23T08:36:32.924Z,12.16
2022-10-23T08:37:32.930Z,12.24
2022-10-23T08:38:32.937Z,12.29
2022-10-23T08:39:32.945Z,12.37
2022-10-23T08:40:32.951Z,12.46
2022-10-23T08:41:32.960Z,12.55
2022-10-23T08:42:32.970Z,12.62
2022-10-23T08:43:32.974Z,12.71
2022-10-23T08:44:32.982Z,12.77
2022-10-23T08:45:32.991Z,12.84
2022-10-23T08:46:32.996Z,12.91
2022-10-23T08:47:33.006Z,12.97
2022-10-23T08:48:33.014Z,13.04
2022-10-23T08:49:33.028Z,13.12
2022-10-23T08:50:33.032Z,13.20
2022-10-23T08:51:33.035Z,13.27
2022-10-23T08:52:33.045Z,13.33
2022-10-23T08:53:33.058Z,13.38
2022-10-23T08:54:33.061Z,13.44
2022-10-23T08:55:33.065Z,13.50
2022-10-23T08:56:33.071Z,13.58
2022-10-23T08:57:38.811Z,13.62
2022-10-23T08:58:33.100Z,13.68
2022-10-23T08:59:33.287Z,13.72
2022-10-23T09:00:33.109Z,13.80
2022-10-23T09:01:33.221Z,13.85
2022-10-23T09:02:33.125Z,13.93
2022-10-23T09:03:33.130Z,13.98
2022-10-23T09:04:33.140Z,14.01
2022-10-23T09:05:33.148Z,14.07
2022-10-23T09:06:33.158Z,14.09
2022-10-23T09:07:33.167Z,14.10
2022-10-23T09:08:33.176Z,14.14
2022-10-23T09:09:33.181Z,14.14
2022-10-23T09:10:33.186Z,14.16
2022-10-23T09:11:33.196Z,14.20
2022-10-23T09:12:33.204Z,14.19
2022-10-23T09:13:33.213Z,14.21
2022-10-23T09:14:33.222Z,14.21
2022-10-23T09:15:33.230Z,14.23
2022-10-23T09:16:33.236Z,14.25
2022-10-23T09:17:33.242Z,14.28
2022-10-23T09:18:33.250Z,14.31
2022-10-23T09:19:33.258Z,14.33
2022-10-23T09:20:33.264Z,14.36
2022-10-23T09:21:33.273Z,14.38
2022-10-23T09:22:33.279Z,14.42
2022-10-23T09:23:33.286Z,14.44
2022-10-23T09:24:33.298Z,14.47
2022-10-23T09:25:33.304Z,14.50
2022-10-23T09:26:33.313Z,14.52
2022-10-23T09:27:33.320Z,14.54
2022-10-23T09:28:33.330Z,14.59
2022-10-23T09:29:33.336Z,14.62
2022-10-23T09:30:33.344Z,14.65
2022-10-23T09:31:33.353Z,14.66
2022-10-23T09:32:33.356Z,14.70
2022-10-23T09:33:33.361Z,14.72
2022-10-23T09:34:33.372Z,14.76
2022-10-23T09:35:33.380Z,14.79
2022-10-23T09:36:33.394Z,14.83
2022-10-23T09:37:33.402Z,14.86
2022-10-23T09:38:33.410Z,14.89
2022-10-23T09:39:33.420Z,14.92
2022-10-23T09:40:33.427Z,14.95
2022-10-23T09:41:33.432Z,14.98
2022-10-23T09:42:33.444Z,15.01
2022-10-23T09:43:33.452Z,15.06
2022-10-23T09:44:33.464Z,15.11
2022-10-23T09:45:33.471Z,15.14
2022-10-23T09:46:33.481Z,15.19
2022-10-23T09:47:33.486Z,15.20
2022-10-23T09:48:33.497Z,15.22
2022-10-23T09:49:33.507Z,15.28
2022-10-23T09:50:33.519Z,15.28
2022-10-23T09:51:33.528Z,15.28
2022-10-23T09:52:33.536Z,15.30
2022-10-23T09:53:33.544Z,15.31
2022-10-23T09:54:33.550Z,15.34
2022-10-23T09:55:33.556Z,15.37
2022-10-23T09:56:33.566Z,15.40
2022-10-23T09:57:33.574Z,15.43
2022-10-23T09:58:33.583Z,15.45
2022-10-23T09:59:33.591Z,15.46
2022-10-23T10:00:33.604Z,15.49
2022-10-23T10:01:33.710Z,15.51
2022-10-23T10:02:33.616Z,15.55
2022-10-23T10:03:33.622Z,15.56
2022-10-23T10:04:33.631Z,15.61
2022-10-23T10:05:33.640Z,15.65
2022-10-23T10:06:33.723Z,15.68
2022-10-23T10:07:34.810Z,15.67
2022-10-23T10:08:33.672Z,15.72
2022-10-23T10:09:33.665Z,15.77
2022-10-23T10:10:33.673Z,15.81
2022-10-23T10:11:33.685Z,15.80
2022-10-23T10:12:33.694Z,15.83
2022-10-23T10:13:33.706Z,15.87
2022-10-23T10:20:33.794Z,16.11
2022-10-23T10:21:33.803Z,16.14
2022-10-23T10:22:33.810Z,16.19
2022-10-23T10:23:33.820Z,16.24
2022-10-23T10:24:33.823Z,16.27
2022-10-23T10:25:33.838Z,16.31
2022-10-23T10:26:33.843Z,16.35
2022-10-23T10:27:33.851Z,16.37
2022-10-23T10:28:33.862Z,16.41
2022-10-23T10:29:33.870Z,16.46
2022-10-23T10:30:33.877Z,16.50
2022-10-23T10:31:33.885Z,16.53
2022-10-23T10:32:33.895Z,16.54
2022-10-23T10:33:33.902Z,16.59
2022-10-23T10:34:33.912Z,16.58
2022-10-23T10:35:33.923Z,16.60
2022-10-23T10:36:33.927Z,16.66
2022-10-23T10:37:33.932Z,16.70
2022-10-23T10:38:33.943Z,16.73
2022-10-23T10:39:33.952Z,16.76
2022-10-23T10:40:33.964Z,16.81
2022-10-23T10:41:33.965Z,16.87
2022-10-23T10:42:33.971Z,16.91
2022-10-23T10:43:33.978Z,16.95
2022-10-23T10:44:33.989Z,17.02
2022-10-23T10:45:33.994Z,17.05
2022-10-23T10:46:34.000Z,17.08
2022-10-23T10:47:34.016Z,17.16
2022-10-23T10:48:34.024Z,17.21
2022-10-23T10:49:34.033Z,17.23
2022-10-23T10:50:34.046Z,17.26
2022-10-23T10:51:34.051Z,17.29
2022-10-23T10:52:34.061Z,17.33
2022-10-23T10:53:34.069Z,17.38
2022-10-23T10:54:34.077Z,17.43
2022-10-23T10:55:34.085Z,17.47
2022-10-23T10:56:34.095Z,17.47
2022-10-23T10:57:34.097Z,17.46
2022-10-23T10:58:34.106Z,17.54
2022-10-23T10:59:34.118Z,17.58
2022-10-23T11:00:34.125Z,17.60
2022-10-23T11:01:34.272Z,17.64
2022-10-23T11:02:34.143Z,17.67
2022-10-23T11:03:36.117Z,17.70
2022-10-23T11:04:34.172Z,17.74
2022-10-23T11:05:34.163Z,17.74
2022-10-23T11:06:34.171Z,17.77
2022-10-23T11:07:34.178Z,17.78
2022-10-23T11:08:40.115Z,17.77
2022-10-23T11:09:34.192Z,17.81
2022-10-23T11:10:34.200Z,17.81
2022-10-23T11:11:34.210Z,17.83
2022-10-23T11:12:34.219Z,17.83
2022-10-23T11:13:34.229Z,17.84
2022-10-23T11:14:34.233Z,17.82
2022-10-23T11:15:34.243Z,17.84
2022-10-23T11:16:34.250Z,17.83
2022-10-23T11:17:34.264Z,17.84
2022-10-23T11:18:34.286Z,17.83
2022-10-23T11:19:34.279Z,17.83
2022-10-23T11:20:34.286Z,17.84
2022-10-23T11:21:34.287Z,17.80
2022-10-23T11:22:34.299Z,17.78
2022-10-23T11:23:34.312Z,17.77
2022-10-23T11:24:34.344Z,17.75
2022-10-23T11:25:34.330Z,17.72
2022-10-23T11:26:34.340Z,17.71
2022-10-23T11:27:34.352Z,17.67
2022-10-23T11:28:34.355Z,17.65
2022-10-23T11:29:34.368Z,17.61
2022-10-23T11:30:34.381Z,17.61
2022-10-23T11:31:34.387Z,17.58
2022-10-23T11:33:34.401Z,17.53
2022-10-23T11:34:34.410Z,17.52
2022-10-23T11:35:34.422Z,17.49
2022-10-23T11:36:34.429Z,17.46
2022-10-23T11:37:34.438Z,17.44
2022-10-23T11:38:34.443Z,17.42
2022-10-23T11:39:34.453Z,17.45
2022-10-23T11:40:34.462Z,17.44
2022-10-23T11:41:34.471Z,17.45
2022-10-23T11:42:34.484Z,17.45
2022-10-23T11:43:34.491Z,17.46
2022-10-23T11:44:34.497Z,17.48
2022-10-23T11:45:34.499Z,17.49
2022-10-23T11:46:34.511Z,17.49
2022-10-23T11:47:39.168Z,17.54
2022-10-23T11:48:34.530Z,17.57
2022-10-23T11:49:34.538Z,17.59
2022-10-23T11:50:34.548Z,17.61
2022-10-23T11:51:34.559Z,17.63
2022-10-23T11:52:38.620Z,17.68
2022-10-23T11:53:34.577Z,17.73
2022-10-23T11:54:34.589Z,17.79
2022-10-23T11:55:34.601Z,17.83
2022-10-23T11:56:34.607Z,17.87
2022-10-23T11:57:34.622Z,17.93
2022-10-23T11:58:34.627Z,18.01
2022-10-23T11:59:34.632Z,18.06
2022-10-23T12:00:34.650Z,18.09
2022-10-23T12:01:34.753Z,18.14
2022-10-23T12:02:34.752Z,18.19
2022-10-23T12:03:34.672Z,18.23
2022-10-23T12:04:34.681Z,18.26
2022-10-23T12:05:34.691Z,18.27
2022-10-23T12:06:34.702Z,18.30
2022-10-23T12:07:34.707Z,18.33
2022-10-23T12:08:34.716Z,18.35
2022-10-23T12:09:34.726Z,18.34
2022-10-23T12:10:34.731Z,18.36
2022-10-23T12:11:34.741Z,18.34
2022-10-23T12:12:34.745Z,18.30
2022-10-23T12:13:34.756Z,18.32
2022-10-23T12:14:34.767Z,18.29
2022-10-23T12:15:34.775Z,18.26
2022-10-23T12:16:34.788Z,18.27
2022-10-23T12:17:34.790Z,18.26
2022-10-23T12:18:34.801Z,18.27
2022-10-23T12:19:34.811Z,18.26
2022-10-23T12:20:34.818Z,18.28
2022-10-23T12:21:34.827Z,18.27
2022-10-23T12:23:34.846Z,18.24
2022-10-23T12:24:34.855Z,18.25
2022-10-23T12:25:34.865Z,18.23
2022-10-23T12:26:34.877Z,18.23
2022-10-23T12:27:34.890Z,18.21
2022-10-23T12:28:34.897Z,18.20
2022-10-23T12:29:34.907Z,18.20
2022-10-23T12:30:34.917Z,18.19
2022-10-23T12:31:34.923Z,18.21
2022-10-23T12:32:34.932Z,18.18
2022-10-23T12:33:34.940Z,18.16
2022-10-23T12:34:34.952Z,18.15
2022-10-23T12:35:35.021Z,18.13
2022-10-23T12:36:34.966Z,18.13
2022-10-23T12:37:34.975Z,18.11
2022-10-23T12:38:35.672Z,18.08
2022-10-23T12:39:34.993Z,18.07
2022-10-23T12:40:34.999Z,18.05
2022-10-23T12:41:35.006Z,18.00
2022-10-23T12:42:35.018Z,17.97
2022-10-23T12:43:35.024Z,17.96
2022-10-23T12:44:35.034Z,17.93
2022-10-23T12:45:35.040Z,17.91
2022-10-23T12:46:35.049Z,17.90
2022-10-23T12:47:35.129Z,17.89
2022-10-23T12:48:35.071Z,17.88
2022-10-23T12:49:35.079Z,17.85
2022-10-23T12:50:35.090Z,17.82
2022-10-23T12:51:35.097Z,17.78
2022-10-23T12:52:35.111Z,17.75
2022-10-23T12:53:35.120Z,17.78
2022-10-23T12:54:35.145Z,17.73
2022-10-23T12:55:36.027Z,17.73
2022-10-23T12:56:35.303Z,17.69
2022-10-23T12:57:35.163Z,17.69
2022-10-23T12:58:35.173Z,17.68
2022-10-23T12:59:35.177Z,17.69
2022-10-23T13:00:35.185Z,17.71
2022-10-23T13:01:35.311Z,17.72
2022-10-23T13:02:35.358Z,17.73
2022-10-23T13:03:35.219Z,17.73
2022-10-23T13:04:35.226Z,17.72
2022-10-23T13:05:35.235Z,17.73
2022-10-23T13:06:35.246Z,17.73
2022-10-23T13:07:35.254Z,17.75
2022-10-23T13:08:35.262Z,17.75
2022-10-23T13:09:35.272Z,17.80
2022-10-23T13:10:35.277Z,17.81
2022-10-23T13:11:35.294Z,17.82
2022-10-23T13:12:35.386Z,17.85
2022-10-23T13:13:35.325Z,17.85
2022-10-23T13:14:36.498Z,17.86
2022-10-23T13:15:35.333Z,17.87
2022-10-23T13:16:35.348Z,17.87
2022-10-23T13:17:35.363Z,17.89
2022-10-23T13:18:35.362Z,17.88
2022-10-23T13:19:35.375Z,17.86
2022-10-23T13:20:35.387Z,17.85
2022-10-23T13:21:35.388Z,17.84
2022-10-23T13:22:35.403Z,17.83
2022-10-23T13:23:35.413Z,17.82
2022-10-23T13:24:35.421Z,17.79
2022-10-23T13:25:35.435Z,17.75
2022-10-23T13:26:35.443Z,17.74
2022-10-23T13:27:35.454Z,17.72